Time;durP1;ratioP1;P1;durP2;ratioP2;P2;SDS_P1;SDS_P2;PMS_P1;PMS_P2;Temp;Humidity;BMP_temperature;BMP_pressure;BME280_temperature;BME280_humidity;BME280_pressure;Samples;Min_cycle;Max_cycle;Signal;HPM_P1;HPM_P2
2021/08/19 00:00:29;;;;;;;;;;;;;;;33.44;20.40;94436.16;5034923;28;19917;-67
2021/08/19 00:02:56;;;;;;;;;;;;;;;33.32;20.80;94442.31;5035132;28;19917;-68
2021/08/19 00:05:22;;;;;;;;;;;;;;;33.52;20.24;94442.13;5035664;28;20328;-68
2021/08/19 00:07:49;;;;;;;;;;;;;;;33.46;20.20;94444.63;5035545;28;20240;-65
2021/08/19 00:10:16;;;;;;;;;;;;;;;33.58;20.35;94443.13;5035321;28;20252;-66
2021/08/19 00:12:43;;;;;;;;;;;;;;;33.42;20.25;94443.97;5035125;28;20231;-63
2021/08/19 00:15:10;;;;;;;;;;;;;;;33.52;20.17;94448.31;5035661;28;19948;-62
2021/08/19 00:17:37;;;;;;;;;;;;;;;33.39;20.16;94452.94;5035440;28;20312;-60
2021/08/19 00:20:04;;;;;;;;;;;;;;;33.41;19.97;94442.44;5034589;28;20346;-66
2021/08/19 00:22:31;;;;;;;;;;;;;;;33.62;20.02;94444.53;5035289;28;19921;-64
2021/08/19 00:24:59;;;;;;;;;;;;;;;33.66;19.79;94447.91;5035381;28;19932;-65
2021/08/19 00:27:26;;;;;;;;;;;;;;;33.67;19.88;94449.41;5035163;28;20213;-67
2021/08/19 00:29:53;;;;;;;;;;;;;;;33.46;20.14;94444.63;5034297;28;19924;-65
2021/08/19 00:32:19;;;;;;;;;;;;;;;33.56;20.03;94443.53;5034583;28;19932;-61
2021/08/19 00:34:46;;;;;;;;;;;;;;;33.43;19.87;94450.91;5034972;28;19928;-68
2021/08/19 00:37:13;;;;;;;;;;;;;;;33.66;19.69;94447.91;5034664;28;19932;-67
2021/08/19 00:39:40;;;;;;;;;;;;;;;33.37;19.89;94449.91;5034532;28;19924;-64
2021/08/19 00:42:07;;;;;;;;;;;;;;;33.40;20.15;94454.47;5034753;28;20304;-64
2021/08/19 00:44:34;;;;;;;;;;;;;;;33.70;19.78;94453.97;5037166;28;19925;-64
2021/08/19 00:47:01;;;;;;;;;;;;;;;33.46;20.04;94444.63;5038565;28;19924;-66
2021/08/19 00:49:29;;;;;;;;;;;;;;;33.59;19.61;94445.41;5037492;28;19928;-60
2021/08/19 00:51:56;;;;;;;;;;;;;;;33.40;19.64;94443.63;5038403;28;19921;-63
2021/08/19 00:54:24;;;;;;;;;;;;;;;33.32;19.72;94450.47;5038914;28;20334;-62
2021/08/19 00:56:54;;;;;;;;;;;;;;;33.38;19.73;94448.72;5038942;28;19917;-59
2021/08/19 00:59:23;;;;;;;;;;;;;;;33.50;19.48;94439.84;5038317;28;19924;-65
2021/08/19 01:01:51;;;;;;;;;;;;;;;33.20;19.74;94440.31;5022721;28;20291;-65
2021/08/19 01:04:18;;;;;;;;;;;;;;;33.72;19.43;94445.41;5038819;28;20354;-67
2021/08/19 01:06:45;;;;;;;;;;;;;;;33.22;20.34;94446.06;5038298;28;19921;-67
2021/08/19 01:09:11;;;;;;;;;;;;;;;33.39;19.45;94444.81;5038302;28;19948;-59
2021/08/19 01:11:39;;;;;;;;;;;;;;;33.40;19.70;94447.09;5037826;28;20097;-67
2021/08/19 01:14:07;;;;;;;;;;;;;;;33.23;19.77;94440.19;5038715;28;19917;-64
2021/08/19 01:16:34;;;;;;;;;;;;;;;33.33;19.45;94441.13;5038096;28;19917;-58
2021/08/19 01:19:01;;;;;;;;;;;;;;;33.43;19.54;94429.22;5038217;28;19924;-60
2021/08/19 01:21:28;;;;;;;;;;;;;;;33.41;19.52;94437.03;5038109;28;19928;-66
2021/08/19 01:23:55;;;;;;;;;;;;;;;33.24;19.64;94435.53;5037765;28;19924;-66
2021/08/19 01:26:22;;;;;;;;;;;;;;;33.42;19.20;94435.84;5038285;28;19922;-61
2021/08/19 01:28:49;;;;;;;;;;;;;;;33.40;19.00;94440.94;5037782;28;19993;-63
2021/08/19 01:31:17;;;;;;;;;;;;;;;33.19;19.27;94436.06;5023394;28;19929;-67
2021/08/19 01:33:44;;;;;;;;;;;;;;;33.34;19.09;94431.81;5035432;28;19917;-67
2021/08/19 01:36:11;;;;;;;;;;;;;;;33.24;19.30;94438.25;5037762;28;19917;-62
2021/08/19 01:38:38;;;;;;;;;;;;;;;33.61;19.03;94440.31;5037584;28;20300;-66
2021/08/19 01:41:05;;;;;;;;;;;;;;;33.34;19.03;94434.53;5038159;28;19921;-62
2021/08/19 01:43:32;;;;;;;;;;;;;;;33.46;18.87;94433.03;5037826;28;19917;-63
2021/08/19 01:46:00;;;;;;;;;;;;;;;33.38;19.21;94427.81;5037721;28;19929;-61
2021/08/19 01:48:27;;;;;;;;;;;;;;;33.36;18.64;94434.84;5037897;28;19932;-65
2021/08/19 01:50:54;;;;;;;;;;;;;;;33.29;18.93;94435.78;5037960;28;19924;-61
2021/08/19 01:53:23;;;;;;;;;;;;;;;33.42;19.03;94427.72;5037773;28;19921;-59
2021/08/19 01:55:51;;;;;;;;;;;;;;;33.26;18.91;94425.78;5036735;28;19952;-67
2021/08/19 01:58:17;;;;;;;;;;;;;;;33.37;18.63;94422.81;5037469;28;19956;-62
2021/08/19 02:00:44;;;;;;;;;;;;;;;33.24;18.87;94422.00;5036057;28;19921;-65
2021/08/19 02:03:11;;;;;;;;;;;;;;;33.30;18.86;94425.69;5037601;28;20308;-62
2021/08/19 02:05:38;;;;;;;;;;;;;;;33.31;18.67;94419.09;5037756;28;19925;-59
2021/08/19 02:08:05;;;;;;;;;;;;;;;33.30;18.67;94420.28;5037944;28;20231;-61
2021/08/19 02:10:33;;;;;;;;;;;;;;;33.23;19.07;94415.81;5037425;28;19917;-62
2021/08/19 02:13:00;;;;;;;;;;;;;;;33.29;18.53;94418.75;5037474;28;19924;-59
2021/08/19 02:15:27;;;;;;;;;;;;;;;33.34;18.73;94421.75;5037853;28;19988;-67
2021/08/19 02:17:53;;;;;;;;;;;;;;;33.29;18.87;94421.47;5037645;28;20228;-63
2021/08/19 02:20:20;;;;;;;;;;;;;;;33.38;18.54;94419.69;5037171;28;19921;-63
2021/08/19 02:22:48;;;;;;;;;;;;;;;33.22;18.61;94418.97;5036819;28;20304;-64
2021/08/19 02:25:15;;;;;;;;;;;;;;;33.36;18.65;94415.91;5036739;28;19932;-62
2021/08/19 02:27:42;;;;;;;;;;;;;;;33.47;18.73;94419.03;5037292;28;19932;-61
2021/08/19 02:30:11;;;;;;;;;;;;;;;33.25;18.62;94424.28;5031833;28;19917;-63
2021/08/19 02:32:37;;;;;;;;;;;;;;;33.44;18.75;94422.63;5023285;28;20344;-60
2021/08/19 02:35:05;;;;;;;;;;;;;;;33.38;18.77;94427.06;5037173;28;19921;-61
2021/08/19 02:37:31;;;;;;;;;;;;;;;33.45;18.30;94421.41;5037125;28;19920;-67
2021/08/19 02:39:58;;;;;;;;;;;;;;;33.39;18.47;94421.19;5036717;28;19967;-65
2021/08/19 02:42:25;;;;;;;;;;;;;;;33.50;18.30;94426.28;5036751;28;19917;-58
2021/08/19 02:44:52;;;;;;;;;;;;;;;33.45;18.15;94424.13;5035742;28;19929;-61
2021/08/19 02:47:19;;;;;;;;;;;;;;;33.25;18.41;94428.94;5036824;28;19917;-59
2021/08/19 02:49:47;;;;;;;;;;;;;;;33.44;18.32;94414.47;5035818;28;20212;-68
2021/08/19 02:52:14;;;;;;;;;;;;;;;33.18;18.64;94429.91;5036653;28;19932;-58
2021/08/19 02:54:41;;;;;;;;;;;;;;;33.54;18.35;94428.91;5036693;28;19920;-60
2021/08/19 02:57:07;;;;;;;;;;;;;;;33.31;18.47;94427.22;5036481;28;19944;-60
2021/08/19 02:59:34;;;;;;;;;;;;;;;33.38;18.78;94435.19;5036006;28;19948;-68
2021/08/19 03:02:02;;;;;;;;;;;;;;;33.32;18.81;94434.19;5035532;28;19925;-60
2021/08/19 03:04:29;;;;;;;;;;;;;;;33.23;18.79;94437.50;5036451;28;19921;-64
2021/08/19 03:06:56;;;;;;;;;;;;;;;33.22;18.88;94438.69;5035875;28;19917;-58
2021/08/19 03:09:22;;;;;;;;;;;;;;;33.29;18.52;94448.56;5036105;28;19921;-61
2021/08/19 03:11:49;;;;;;;;;;;;;;;33.32;18.49;94450.47;5036195;28;20235;-58
2021/08/19 03:14:16;;;;;;;;;;;;;;;33.42;18.90;94444.72;5036117;28;20306;-66
2021/08/19 03:16:43;;;;;;;;;;;;;;;33.10;19.07;94456.44;5035778;28;19931;-65
2021/08/19 03:19:10;;;;;;;;;;;;;;;33.24;19.31;94454.50;5035837;28;19924;-65
2021/08/19 03:21:37;;;;;;;;;;;;;;;33.02;19.43;94455.09;5036132;28;20249;-58
2021/08/19 03:24:04;;;;;;;;;;;;;;;33.50;18.62;94456.09;5035793;28;20330;-63
2021/08/19 03:26:34;;;;;;;;;;;;;;;33.15;19.16;94462.50;5036105;28;20255;-65
2021/08/19 03:29:01;;;;;;;;;;;;;;;33.13;18.37;94460.22;5035597;28;19948;-63
2021/08/19 03:31:28;;;;;;;;;;;;;;;32.98;18.50;94454.44;5035425;28;19929;-61
2021/08/19 03:33:55;;;;;;;;;;;;;;;33.06;19.09;94461.19;5036008;28;19921;-62
2021/08/19 03:36:23;;;;;;;;;;;;;;;33.09;19.20;94465.75;5036197;28;19924;-64
2021/08/19 03:38:50;;;;;;;;;;;;;;;33.14;18.50;94458.28;5036034;28;19928;-66
2021/08/19 03:41:17;;;;;;;;;;;;;;;33.28;18.54;94464.03;5036148;28;19937;-62
2021/08/19 03:43:45;;;;;;;;;;;;;;;33.13;18.63;94464.88;5035196;28;19928;-62
2021/08/19 03:46:12;;;;;;;;;;;;;;;32.98;18.76;94459.09;5035315;28;19932;-61
2021/08/19 03:48:39;;;;;;;;;;;;;;;32.74;18.97;94461.22;5036060;28;20223;-66
2021/08/19 03:51:07;;;;;;;;;;;;;;;32.97;18.31;94458.31;5035397;28;19924;-62
2021/08/19 03:53:34;;;;;;;;;;;;;;;32.98;18.15;94459.09;5035506;28;19917;-63
2021/08/19 03:56:01;;;;;;;;;;;;;;;32.93;18.43;94452.25;5035793;28;19917;-62
2021/08/19 03:58:28;;;;;;;;;;;;;;;32.87;18.21;94456.66;5035811;28;19925;-64
2021/08/19 04:00:55;;;;;;;;;;;;;;;33.05;18.28;94456.97;5024310;28;19925;-59
2021/08/19 04:03:22;;;;;;;;;;;;;;;32.88;18.45;94455.47;5025154;28;19917;-62
2021/08/19 04:05:49;;;;;;;;;;;;;;;32.76;18.77;94464.25;5035316;28;19936;-61
2021/08/19 04:08:15;;;;;;;;;;;;;;;32.97;18.23;94462.97;5035329;28;19924;-57
2021/08/19 04:10:42;;;;;;;;;;;;;;;33.05;18.29;94454.25;5035124;28;19917;-65
2021/08/19 04:13:09;;;;;;;;;;;;;;;33.01;17.88;94453.56;5035340;28;19925;-64
2021/08/19 04:15:36;;;;;;;;;;;;;;;33.05;18.20;94465.09;5035428;28;19924;-61
2021/08/19 04:18:03;;;;;;;;;;;;;;;33.58;18.12;94465.56;5034506;28;19924;-60
2021/08/19 04:20:30;;;;;;;;;;;;;;;33.40;18.60;94473.44;5033442;28;20217;-50
2021/08/19 04:22:57;;;;;;;;;;;;;;;32.76;19.37;94469.69;5029973;28;19921;-46
2021/08/19 04:25:23;;;;;;;;;;;;;;;32.95;19.13;94474.22;5034643;28;19925;-57
2021/08/19 04:27:50;;;;;;;;;;;;;;;32.80;19.30;94464.97;5033816;28;20309;-58
2021/08/19 04:30:17;;;;;;;;;;;;;;;32.93;19.08;94473.16;5033799;28;19917;-54
2021/08/19 04:32:44;;;;;;;;;;;;;;;33.11;19.20;94473.44;5034502;28;19955;-56
2021/08/19 04:35:11;;;;;;;;;;;;;;;33.32;18.84;94477.53;5034870;28;19928;-55
2021/08/19 04:37:39;;;;;;;;;;;;;;;33.13;19.28;94481.13;5033952;28;19921;-53
2021/08/19 04:40:06;;;;;;;;;;;;;;;33.11;19.12;94468.78;5034497;28;19989;-53
2021/08/19 04:42:33;;;;;;;;;;;;;;;33.28;18.80;94472.16;5033964;28;19917;-51
2021/08/19 04:44:59;;;;;;;;;;;;;;;33.28;19.48;94476.81;5034044;28;19921;-54
2021/08/19 04:47:26;;;;;;;;;;;;;;;33.22;19.46;94475.84;5034618;28;20239;-56
2021/08/19 04:49:53;;;;;;;;;;;;;;;34.22;19.07;94479.91;5034183;28;19917;-52
2021/08/19 04:52:20;;;;;;;;;;;;;;;34.48;18.39;94474.47;5033568;28;19917;-69
2021/08/19 04:54:47;;;;;;;;;;;;;;;34.39;18.49;94479.81;5034794;28;20260;-53
2021/08/19 04:57:14;;;;;;;;;;;;;;;34.83;17.98;94470.56;5034306;28;19921;-71
2021/08/19 04:59:40;;;;;;;;;;;;;;;34.50;18.30;94477.50;5033655;28;19932;-59
2021/08/19 05:02:07;;;;;;;;;;;;;;;34.58;18.12;94478.78;5033826;28;19921;-54
2021/08/19 05:04:34;;;;;;;;;;;;;;;34.58;17.85;94476.06;5034190;28;19917;-67
2021/08/19 05:07:01;;;;;;;;;;;;;;;34.52;18.34;94491.41;5033855;28;19925;-66
2021/08/19 05:09:28;;;;;;;;;;;;;;;35.30;18.10;94486.03;5034393;28;19924;-59
2021/08/19 05:11:55;;;;;;;;;;;;;;;34.30;18.19;94483.91;5034578;28;19917;-70
2021/08/19 05:14:22;;;;;;;;;;;;;;;34.09;18.07;94484.56;5034807;28;19921;-69
2021/08/19 05:16:49;;;;;;;;;;;;;;;34.14;18.10;94489.47;5034753;28;19921;-69
2021/08/19 05:19:15;;;;;;;;;;;;;;;34.13;17.67;94496.09;5034300;28;20236;-66
2021/08/19 05:21:44;;;;;;;;;;;;;;;34.13;17.86;94489.91;5034494;28;19917;-69
2021/08/19 05:24:10;;;;;;;;;;;;;;;33.97;17.90;94488.81;5033859;28;19924;-67
2021/08/19 05:26:37;;;;;;;;;;;;;;;34.28;17.46;94489.00;5034676;28;19921;-54
2021/08/19 05:29:04;;;;;;;;;;;;;;;34.06;17.73;94495.53;5033923;28;19917;-68
2021/08/19 05:31:31;;;;;;;;;;;;;;;34.16;17.62;94495.22;5021130;28;19933;-60
2021/08/19 05:33:58;;;;;;;;;;;;;;;34.12;17.94;94500.00;5030462;28;20332;-69
2021/08/19 05:36:25;;;;;;;;;;;;;;;34.26;17.82;94509.63;5038630;28;19925;-71
2021/08/19 05:38:52;;;;;;;;;;;;;;;34.48;17.78;94505.09;5038041;28;19928;-63
2021/08/19 05:41:19;;;;;;;;;;;;;;;34.33;17.29;94495.84;5038218;28;19925;-65
2021/08/19 05:43:45;;;;;;;;;;;;;;;34.48;17.36;94498.91;5038041;28;19917;-71
2021/08/19 05:46:12;;;;;;;;;;;;;;;34.54;17.53;94491.72;5038033;28;19932;-62
2021/08/19 05:48:39;;;;;;;;;;;;;;;34.91;17.03;94498.28;5038227;28;20335;-67
2021/08/19 05:51:06;;;;;;;;;;;;;;;34.63;17.22;94494.53;5037973;28;19924;-70
2021/08/19 05:53:33;;;;;;;;;;;;;;;34.83;16.79;94496.97;5037692;28;19921;-53
2021/08/19 05:56:00;;;;;;;;;;;;;;;35.05;16.56;94502.47;5038214;28;19924;-64
2021/08/19 05:58:27;;;;;;;;;;;;;;;35.02;16.72;94497.91;5038238;28;19921;-69
2021/08/19 06:00:53;;;;;;;;;;;;;;;35.27;16.92;94502.47;5037258;28;19921;-54
2021/08/19 06:03:20;;;;;;;;;;;;;;;35.39;16.59;94499.72;5037133;28;19929;-68
2021/08/19 06:05:47;;;;;;;;;;;;;;;35.24;16.65;94498.69;5037287;28;19925;-71
2021/08/19 06:08:14;;;;;;;;;;;;;;;35.12;16.72;94496.78;5037769;28;19921;-65
2021/08/19 06:10:41;;;;;;;;;;;;;;;35.38;16.67;94498.19;5037861;28;19925;-62
2021/08/19 06:13:08;;;;;;;;;;;;;;;35.68;16.45;94495.97;5037435;28;19928;-69
2021/08/19 06:15:35;;;;;;;;;;;;;;;35.55;16.07;94490.59;5037345;28;19924;-71
2021/08/19 06:18:02;;;;;;;;;;;;;;;35.79;16.33;94488.16;5037850;28;19924;-70
2021/08/19 06:20:29;;;;;;;;;;;;;;;35.64;16.76;94487.19;5037501;28;19921;-60
2021/08/19 06:22:56;;;;;;;;;;;;;;;35.81;16.90;94491.19;5037390;28;19921;-70
2021/08/19 06:25:23;;;;;;;;;;;;;;;36.11;16.23;94493.16;5036954;28;19924;-60
2021/08/19 06:27:51;;;;;;;;;;;;;;;35.94;15.92;94489.19;5037578;28;19925;-57
2021/08/19 06:30:18;;;;;;;;;;;;;;;36.01;15.86;94483.47;5036856;28;19917;-71
2021/08/19 06:32:44;;;;;;;;;;;;;;;35.99;15.53;94491.31;5036504;28;19925;-58
2021/08/19 06:35:11;;;;;;;;;;;;;;;35.72;15.89;94488.44;5036720;28;19917;-57
2021/08/19 06:37:38;;;;;;;;;;;;;;;36.02;15.80;94474.09;5034648;28;19932;-53
2021/08/19 06:40:06;;;;;;;;;;;;;;;35.91;16.29;94473.75;5025868;28;20236;-58
2021/08/19 06:42:33;;;;;;;;;;;;;;;36.14;15.62;94475.94;5031080;28;19963;-58
2021/08/19 06:45:00;;;;;;;;;;;;;;;36.38;15.90;94475.44;5023977;28;19921;-55
2021/08/19 06:47:26;;;;;;;;;;;;;;;36.53;15.65;94478.34;5026297;28;20237;-69
2021/08/19 06:49:53;;;;;;;;;;;;;;;36.94;15.26;94475.06;5024621;28;19921;-61
2021/08/19 06:52:20;;;;;;;;;;;;;;;36.54;15.81;94475.19;5024808;28;19925;-57
2021/08/19 06:54:47;;;;;;;;;;;;;;;36.92;15.29;94469.31;5025415;28;19921;-62
2021/08/19 06:57:14;;;;;;;;;;;;;;;37.45;14.94;94471.72;5026027;28;19921;-63
2021/08/19 06:59:41;;;;;;;;;;;;;;;37.50;14.47;94473.09;5023500;28;19924;-63
2021/08/19 07:02:09;;;;;;;;;;;;;;;37.61;14.81;94476.09;5023166;28;19929;-56
2021/08/19 07:04:36;;;;;;;;;;;;;;;37.44;14.90;94472.19;5025524;28;19925;-63
2021/08/19 07:07:02;;;;;;;;;;;;;;;37.61;14.51;94471.41;5025591;28;19925;-60
2021/08/19 07:09:30;;;;;;;;;;;;;;;37.87;14.27;94476.50;5021750;28;19925;-65
2021/08/19 07:11:56;;;;;;;;;;;;;;;37.79;14.14;94472.59;5017627;28;19918;-71
2021/08/19 07:14:23;;;;;;;;;;;;;;;38.21;14.53;94475.31;5028524;28;19917;-70
2021/08/19 07:16:50;;;;;;;;;;;;;;;37.60;14.08;94467.16;5036339;28;19921;-68
2021/08/19 07:19:17;;;;;;;;;;;;;;;38.01;13.50;94475.09;5035729;28;20300;-55
2021/08/19 07:21:45;;;;;;;;;;;;;;;38.26;13.41;94471.97;5036214;28;19917;-68
2021/08/19 07:24:12;;;;;;;;;;;;;;;38.62;13.29;94472.97;5035859;28;19924;-66
2021/08/19 07:26:39;;;;;;;;;;;;;;;39.19;12.90;94467.41;5035557;28;19925;-57
2021/08/19 07:29:06;;;;;;;;;;;;;;;39.43;13.02;94484.50;5035024;28;19921;-65
2021/08/19 07:31:32;;;;;;;;;;;;;;;39.70;12.69;94475.31;5035247;28;20600;-62
2021/08/19 07:33:59;;;;;;;;;;;;;;;39.88;12.67;94468.88;5036553;28;19928;-66
2021/08/19 07:36:26;;;;;;;;;;;;;;;40.68;12.09;94467.56;5036018;28;19917;-71
2021/08/19 07:38:53;;;;;;;;;;;;;;;40.13;12.42;94479.25;5035435;28;19917;-66
2021/08/19 07:41:20;;;;;;;;;;;;;;;40.04;12.36;94473.84;5036229;28;19921;-61
2021/08/19 07:43:47;;;;;;;;;;;;;;;39.69;12.44;94474.53;5035985;28;19932;-71
2021/08/19 07:46:14;;;;;;;;;;;;;;;39.33;12.54;94474.91;5035819;28;19948;-70
2021/08/19 07:48:40;;;;;;;;;;;;;;;39.48;12.76;94465.47;5035323;28;19921;-62
2021/08/19 07:51:07;;;;;;;;;;;;;;;39.16;12.84;94467.13;5035877;28;19917;-71
2021/08/19 07:53:34;;;;;;;;;;;;;;;39.27;12.56;94466.56;5035016;28;19924;-61
2021/08/19 07:56:01;;;;;;;;;;;;;;;39.09;12.79;94470.25;5035634;28;19921;-57
2021/08/19 07:58:30;;;;;;;;;;;;;;;39.44;13.05;94472.34;5035464;28;19951;-70
2021/08/19 08:00:58;;;;;;;;;;;;;;;39.28;12.77;94470.06;5035233;28;19921;-71
2021/08/19 08:03:25;;;;;;;;;;;;;;;38.62;13.41;94456.59;5035416;28;19924;-69
2021/08/19 08:05:52;;;;;;;;;;;;;;;39.20;12.56;94460.72;5034767;28;19929;-71
2021/08/19 08:08:19;;;;;;;;;;;;;;;39.25;12.60;94458.09;5035666;28;19921;-65
2021/08/19 08:10:46;;;;;;;;;;;;;;;39.54;12.58;94456.63;5035561;28;20591;-68
2021/08/19 08:13:12;;;;;;;;;;;;;;;39.35;12.74;94461.50;5035720;28;20338;-70
2021/08/19 08:15:39;;;;;;;;;;;;;;;39.43;12.82;94457.91;5034935;28;19932;-56
2021/08/19 08:18:07;;;;;;;;;;;;;;;39.65;12.66;94454.84;5035745;28;20205;-60
2021/08/19 08:20:34;;;;;;;;;;;;;;;39.69;12.54;94455.41;5014607;28;19928;-67
2021/08/19 08:23:01;;;;;;;;;;;;;;;39.46;12.71;94461.69;5015823;28;19925;-63
2021/08/19 08:25:28;;;;;;;;;;;;;;;39.50;12.58;94454.06;5023008;28;19917;-69
2021/08/19 08:28:04;;;;;;;;;;;;;;;40.26;11.95;94449.56;5035326;28;19925;-71
2021/08/19 08:30:34;;;;;;;;;;;;;;;39.65;12.64;94445.88;5027056;28;19936;-58
2021/08/19 08:33:01;;;;;;;;;;;;;;;40.05;11.94;94437.06;5015745;28;19917;-60
2021/08/19 08:35:36;;;;;;;;;;;;;;;40.41;11.93;94437.84;5022744;28;19917;-68
2021/08/19 08:38:07;;;;;;;;;;;;;;;40.02;11.47;94433.28;5035403;28;19917;-69
2021/08/19 08:40:36;;;;;;;;;;;;;;;39.90;12.16;94442.53;5035147;28;19921;-69
2021/08/19 08:43:04;;;;;;;;;;;;;;;39.74;12.04;94427.38;5035427;28;19921;-65
2021/08/19 08:45:34;;;;;;;;;;;;;;;39.95;12.12;94430.94;5034866;28;19924;-61
2021/08/19 08:48:02;;;;;;;;;;;;;;;40.07;12.26;94437.31;5035335;28;19921;-63
2021/08/19 08:50:30;;;;;;;;;;;;;;;40.14;11.61;94428.00;5034656;28;19925;-63
2021/08/19 08:52:57;;;;;;;;;;;;;;;40.39;11.74;94423.88;5035244;28;20328;-70
2021/08/19 08:55:27;;;;;;;;;;;;;;;40.03;11.81;94431.31;5033209;28;19917;-69
2021/08/19 08:57:54;;;;;;;;;;;;;;;40.34;11.56;94434.25;5035073;28;20259;-71
2021/08/19 09:00:21;;;;;;;;;;;;;;;40.35;11.57;94419.31;5028344;28;19921;-71
2021/08/19 09:02:48;;;;;;;;;;;;;;;40.92;10.93;94416.06;5014819;28;19921;-70
2021/08/19 09:05:19;;;;;;;;;;;;;;;40.75;11.25;94417.81;5025505;28;20263;-69
2021/08/19 09:07:56;;;;;;;;;;;;;;;40.61;10.89;94416.69;5038862;28;19921;-67
2021/08/19 09:10:24;;;;;;;;;;;;;;;40.55;11.12;94415.09;5038639;28;19917;-65
2021/08/19 09:12:52;;;;;;;;;;;;;;;40.69;10.83;94414.28;5038952;28;19924;-67
2021/08/19 09:15:19;;;;;;;;;;;;;;;40.68;10.63;94419.00;5037760;28;19917;-71
2021/08/19 09:17:51;;;;;;;;;;;;;;;40.53;10.66;94407.34;5038836;28;20293;-70
2021/08/19 09:20:19;;;;;;;;;;;;;;;40.49;10.74;94411.53;5038410;28;20264;-69
2021/08/19 09:22:50;;;;;;;;;;;;;;;40.39;10.41;94401.97;5038768;28;19924;-64
2021/08/19 09:25:23;;;;;;;;;;;;;;;40.38;10.86;94405.94;5038451;28;19928;-70
2021/08/19 09:28:08;;;;;;;;;;;;;;;40.45;10.38;94397.31;5038616;28;19929;-66
2021/08/19 09:30:35;;;;;;;;;;;;;;;40.43;10.23;94400.53;5037738;28;19917;-65
2021/08/19 09:33:03;;;;;;;;;;;;;;;40.06;10.58;94402.97;5038353;28;19913;-64
2021/08/19 09:35:30;;;;;;;;;;;;;;;40.39;10.16;94402.72;5036474;28;19921;-57
2021/08/19 09:37:57;;;;;;;;;;;;;;;40.54;10.30;94397.16;5038170;28;19924;-71
2021/08/19 09:40:24;;;;;;;;;;;;;;;40.36;10.15;94387.97;5037814;28;19924;-68
2021/08/19 09:42:51;;;;;;;;;;;;;;;40.79;9.63;94385.47;5038165;28;20311;-55
2021/08/19 09:45:22;;;;;;;;;;;;;;;41.13;9.29;94381.13;5037870;28;19917;-57
2021/08/19 09:47:50;;;;;;;;;;;;;;;40.70;9.83;94382.91;5037750;28;19936;-59
2021/08/19 09:50:18;;;;;;;;;;;;;;;41.22;9.18;94378.25;5037827;28;19917;-60
2021/08/19 09:52:45;;;;;;;;;;;;;;;41.17;9.62;94381.66;5037903;28;19924;-56
2021/08/19 09:55:19;;;;;;;;;;;;;;;40.98;9.21;94373.00;5037639;28;19917;-57
2021/08/19 09:57:46;;;;;;;;;;;;;;;41.02;9.41;94369.28;5036906;28;20243;-56
2021/08/19 10:00:30;;;;;;;;;;;;;;;41.63;9.53;94366.34;5036849;28;19921;-58
2021/08/19 10:03:11;;;;;;;;;;;;;;;41.29;9.23;94366.09;5022349;28;19925;-56
2021/08/19 10:05:38;;;;;;;;;;;;;;;40.82;9.56;94356.38;5036050;28;19917;-56
2021/08/19 10:08:08;;;;;;;;;;;;;;;40.61;9.66;94358.41;5036711;28;19925;-55
2021/08/19 10:10:35;;;;;;;;;;;;;;;40.72;9.71;94353.03;5037147;28;19988;-56
2021/08/19 10:13:02;;;;;;;;;;;;;;;41.07;9.68;94354.88;5037824;28;19917;-57
2021/08/19 10:15:34;;;;;;;;;;;;;;;41.38;10.00;94341.25;5037377;28;19921;-57
2021/08/19 10:18:01;;;;;;;;;;;;;;;41.54;9.75;94346.09;5035569;28;19924;-57
2021/08/19 10:20:29;;;;;;;;;;;;;;;41.72;10.07;94341.50;5035776;28;20339;-56
2021/08/19 10:22:57;;;;;;;;;;;;;;;41.32;10.05;94345.91;5037066;28;20331;-59
2021/08/19 10:25:24;;;;;;;;;;;;;;;40.73;9.71;94349.06;5034851;28;19917;-71
2021/08/19 10:28:09;;;;;;;;;;;;;;;40.79;9.89;94347.13;5036286;28;19932;-60
2021/08/19 10:30:41;;;;;;;;;;;;;;;41.36;9.32;94343.69;5028540;28;19925;-60
2021/08/19 10:33:08;;;;;;;;;;;;;;;40.69;9.22;94334.81;5027559;28;20369;-71
2021/08/19 10:35:35;;;;;;;;;;;;;;;41.45;9.05;94331.81;5036921;28;19921;-56
2021/08/19 10:38:02;;;;;;;;;;;;;;;41.40;9.30;94327.78;5037055;28;19924;-71
2021/08/19 10:40:29;;;;;;;;;;;;;;;41.54;9.00;94332.38;5037060;28;20339;-60
2021/08/19 10:42:59;;;;;;;;;;;;;;;41.09;8.96;94331.22;5037189;28;19928;-58
2021/08/19 10:45:26;;;;;;;;;;;;;;;41.11;9.68;94330.75;5036384;28;20660;-61
2021/08/19 10:48:15;;;;;;;;;;;;;;;41.04;9.91;94328.44;5036854;28;19929;-69
2021/08/19 10:50:43;;;;;;;;;;;;;;;41.49;9.49;94319.38;5037134;28;19917;-68
2021/08/19 10:53:12;;;;;;;;;;;;;;;41.65;9.82;94325.50;5037174;28;19924;-60
2021/08/19 10:55:49;;;;;;;;;;;;;;;40.79;9.70;94327.94;5036823;28;19924;-71
2021/08/19 10:58:23;;;;;;;;;;;;;;;41.11;9.47;94328.00;5042409;28;20208;-64
2021/08/19 11:00:49;;;;;;;;;;;;;;;41.53;9.03;94324.63;5046139;28;19921;-69
2021/08/19 11:03:35;;;;;;;;;;;;;;;41.40;9.09;94322.31;5037082;28;19917;-57
2021/08/19 11:06:02;;;;;;;;;;;;;;;40.74;9.13;94317.69;5036857;28;19917;-62
2021/08/19 11:08:40;;;;;;;;;;;;;;;40.42;8.85;94316.88;5035024;28;19928;-61
2021/08/19 11:11:07;;;;;;;;;;;;;;;40.76;8.88;94315.22;5036803;28;19917;-61
2021/08/19 11:13:35;;;;;;;;;;;;;;;40.72;9.23;94325.63;5036710;28;19917;-69
2021/08/19 11:16:06;;;;;;;;;;;;;;;41.43;9.22;94315.84;5036437;28;19924;-59
2021/08/19 11:18:34;;;;;;;;;;;;;;;41.30;9.39;94318.22;5036292;28;20224;-57
2021/08/19 11:21:01;;;;;;;;;;;;;;;40.69;9.16;94310.16;5036749;28;19928;-58
2021/08/19 11:23:30;;;;;;;;;;;;;;;41.37;9.79;94312.28;5036609;28;19917;-59
2021/08/19 11:26:00;;;;;;;;;;;;;;;41.58;9.52;94310.19;5036178;28;19927;-70
2021/08/19 11:28:34;;;;;;;;;;;;;;;40.43;9.37;94301.19;5035556;28;19925;-67
2021/08/19 11:31:07;;;;;;;;;;;;;;;41.32;9.10;94299.28;5023785;28;19944;-62
2021/08/19 11:33:35;;;;;;;;;;;;;;;41.58;9.66;94305.47;5015204;28;20308;-69
2021/08/19 11:36:02;;;;;;;;;;;;;;;41.43;9.87;94298.63;5022141;28;20330;-68
2021/08/19 11:38:30;;;;;;;;;;;;;;;41.46;9.32;94292.94;5035467;28;19917;-67
2021/08/19 11:40:57;;;;;;;;;;;;;;;40.79;9.28;94291.56;5035658;28;20294;-63
2021/08/19 11:43:31;;;;;;;;;;;;;;;41.43;9.26;94298.63;5035616;28;19924;-62
2021/08/19 11:46:09;;;;;;;;;;;;;;;41.23;9.46;94288.53;5035761;28;20235;-69
2021/08/19 11:48:37;;;;;;;;;;;;;;;40.98;9.00;94287.28;5035446;28;20636;-69
2021/08/19 11:51:04;;;;;;;;;;;;;;;40.76;9.38;94285.06;5035843;28;20347;-64
2021/08/19 11:53:31;;;;;;;;;;;;;;;40.85;9.55;94284.94;5035806;28;19928;-59
2021/08/19 11:56:11;;;;;;;;;;;;;;;40.85;10.04;94279.44;5035472;28;19928;-68
2021/08/19 11:58:38;;;;;;;;;;;;;;;41.05;9.68;94286.09;5034659;28;19921;-71
2021/08/19 12:01:05;;;;;;;;;;;;;;;40.89;9.65;94280.00;5034077;28;19928;-64
2021/08/19 12:03:42;;;;;;;;;;;;;;;41.02;9.37;94276.09;5035525;28;19921;-58
2021/08/19 12:06:10;;;;;;;;;;;;;;;40.47;9.66;94282.56;5035002;28;20240;-71
2021/08/19 12:08:38;;;;;;;;;;;;;;;39.86;9.77;94266.13;5034803;28;19940;-63
2021/08/19 12:11:06;;;;;;;;;;;;;;;40.30;9.73;94272.13;5035229;28;19924;-61
2021/08/19 12:13:34;;;;;;;;;;;;;;;40.30;9.64;94269.41;5034944;28;19921;-57
2021/08/19 12:16:01;;;;;;;;;;;;;;;40.50;9.56;94265.91;5033998;28;19921;-57
2021/08/19 12:18:28;;;;;;;;;;;;;;;40.20;9.91;94259.84;5033918;28;19925;-57
2021/08/19 12:21:14;;;;;;;;;;;;;;;40.14;9.94;94259.03;5033720;28;19917;-66
2021/08/19 12:23:41;;;;;;;;;;;;;;;40.69;9.72;94260.88;5034885;28;20243;-63
2021/08/19 12:26:09;;;;;;;;;;;;;;;40.51;9.44;94255.69;5035231;28;19928;-62
2021/08/19 12:28:36;;;;;;;;;;;;;;;40.34;9.64;94259.00;5034584;28;19922;-59
2021/08/19 12:31:07;;;;;;;;;;;;;;;40.07;9.87;94251.22;5034312;28;19936;-62
2021/08/19 12:33:38;;;;;;;;;;;;;;;40.34;9.84;94250.78;5034319;28;20316;-62
2021/08/19 12:36:08;;;;;;;;;;;;;;;40.46;9.71;94248.19;5035025;28;19924;-69
2021/08/19 12:38:35;;;;;;;;;;;;;;;40.06;9.85;94250.47;5034817;28;19924;-58
2021/08/19 12:41:15;;;;;;;;;;;;;;;40.11;9.81;94253.78;5034610;28;19917;-68
2021/08/19 12:43:42;;;;;;;;;;;;;;;40.01;9.87;94247.66;5034761;28;19975;-57
2021/08/19 12:46:10;;;;;;;;;;;;;;;40.19;9.57;94241.16;5035066;28;20343;-70
2021/08/19 12:48:37;;;;;;;;;;;;;;;40.16;9.61;94242.88;5034689;28;19922;-58
2021/08/19 12:51:16;;;;;;;;;;;;;;;39.96;9.51;94235.44;5035148;28;19921;-66